Weather at North Fork Airport

Public forecast

Using degrees Fahrenheit for public forecast. Weather courtesy of forecast.io.

Closest aviation weather report (METAR) to North Fork Airport

Closest report is Glacier Park International Airport, 37.9 nm (70.2 km) S.

2024/07/19 20:55 (retrieved 1 hour ago)

KGPI 192055Z VRB05KT 10SM CLR 33/11 A3013 RMK AO2 SLP179 T03330106 58010

Closest aviation forecast (TAF) to North Fork Airport

Closest forecast is Glacier Park International Airport, 37.9 nm (70.2 km) S.

2024/07/19 18:22 (retrieved 4 hours ago)

TAF KGPI 191720Z 1918/2018 02009KT P6SM SKC FM192200 VRB06KT P6SM SKC FM200600 00000KT 6SM FU SKC